KSUS/SUS METAR and TAF weather

Enter ICAO airport designator
Station Type Date Time Source
KSUS METAR 2019/06/19 05:54 UTC NOAA

KSUS 190554Z AUTO 00000KT 10SM BKN060 BKN110 23/21 A2981 RMK AO2 SLP088 T02280211 10272 20222 402940217 58006


Station Type Date Time Source
KSUS Decoded METAR 2019/06/19 05:54 UTC NOAA

SPIRIT OF ST. LOUIS AIRPORT , MO, United States (KSUS) 38-39N 090-39W 141M
Jun 19, 2019 - 01:54 AM EDT / 2019.06.19 0554 UTC
Wind: Calm:0
Visibility: 10 mile(s):0
Sky conditions: mostly cloudy
Temperature: 73.0 F (22.8 C)
Dew Point: 70.0 F (21.1 C)
Relative Humidity: 90%
Pressure (altimeter): 29.81 in. Hg (1009 hPa)
Pressure tendency: 0.02 inches (0.6 hPa) lower than three hours ago
ob: KSUS 190554Z AUTO 00000KT 10SM BKN060 BKN110 23/21 A2981 RMK AO2 SLP088 T02280211 10272 20222 402940217 58006
cycle: 6

Station Type Date Time Source
KSUS TAF 2019/06/19 06:21 UTC NOAA

TAF KSUS 190520Z 1906/2006 VRB04KT P6SM SCT060 BKN250
FM190900 VRB04KT P6SM VCSH BKN050
FM191500 22007KT P6SM VCTS BKN040CB
TEMPO 1922/1924 3SM TSRA OVC030CB
FM200200 26006KT P6SM BKN040

Example: see airport list